Terminal Aerodrome Forecast
Issued by NWS

Home | Current Version | Previous Version | Text Only | Print | Product List | Glossary On
Versions: 1 2 3 4 5 6 7 8 9 10 11 12 13
000
FTUS46 KOTX 290520
TAFSFF
TAF
KSFF 290520Z 2906/3006 07007KT P6SM VCSH BKN070 OVC090
     FM290900 05003KT P6SM -SHRA BKN050 OVC070
     FM291200 17003KT P6SM -RA BKN025 OVC040
     FM292100 21007KT 6SM RA BKN020 OVC040
     FM300300 VRB02KT P6SM BKN050 OVC060=

USA.gov is the U.S. government's official web portal to all federal, state and local government web resources and services.